KBGF

Winchester Municipal Airport

Winchester, Tennessee, USA
METAR KBGF 241435Z AUTO 25008KT 10SM SCT023 SCT030 BKN039 28/23 A3002 RMK A01
Observed Flight Rules
Jun-24 @ 14:35 UTC (28 minutes ago) Visual Flight Rules
Wind Visibility Clouds
250° at 8 knots 10 miles
  • Scattered at 2,300' AGL
  • Scattered at 3,000' AGL
  • Broken at 3,900' AGL
Temperatures Readings
Current 28°C / 82°F
Dewpoint 23°C / 73°F
Humidity 74%
Altimeter 30.02" Hg
Pressure 1017 hPa
Elevation 299
METAR KBGF 241435Z AUTO 25008KT 10SM SCT023 SCT030 BKN039 28/23 A3002 RMK A01
Observed Flight Rules
Jun-24 @ 14:35 UTC
(28 minutes ago)
VFR
Wind Visibility
250° at 8 knots 10 miles
Clouds
  • Scattered at 2,300' AGL
  • Scattered at 3,000' AGL
  • Broken at 3,900' AGL
Temperature Dewpoint
28°C / 82°F 23°C / 73°F
Humidity Altimeter Pressure
74% 30.02" Hg 1017 hPa